sensor_id;sensor_type;location;lat;lon;timestamp;P1;durP1;ratioP1;P2;durP2;ratioP2
73434;SDS011;61648;52.094;5.054;2022-10-16T04:44:15;2.17;;;1.00;;
73434;SDS011;61648;52.094;5.054;2022-10-16T04:46:41;2.42;;;1.30;;
73434;SDS011;61648;52.094;5.054;2022-10-16T04:49:07;1.40;;;1.00;;
73434;SDS011;61648;52.094;5.054;2022-10-16T04:51:33;3.30;;;1.00;;
73434;SDS011;61648;52.094;5.054;2022-10-16T04:53:59;3.28;;;1.17;;
73434;SDS011;61648;52.094;5.054;2022-10-16T04:56:25;4.07;;;1.30;;
73434;SDS011;61648;52.094;5.054;2022-10-16T04:58:51;3.47;;;1.10;;
73434;SDS011;61648;52.094;5.054;2022-10-16T05:01:18;3.35;;;1.20;;
73434;SDS011;61648;52.094;5.054;2022-10-16T05:03:44;2.53;;;0.90;;
73434;SDS011;61648;52.094;5.054;2022-10-16T05:06:10;3.42;;;1.02;;
73434;SDS011;61648;52.094;5.054;2022-10-16T05:08:36;2.13;;;0.82;;
73434;SDS011;61648;52.094;5.054;2022-10-16T05:11:02;2.05;;;0.90;;
73434;SDS011;61648;52.094;5.054;2022-10-16T05:13:28;4.25;;;1.13;;
73434;SDS011;61648;52.094;5.054;2022-10-16T05:15:54;1.50;;;0.85;;
73434;SDS011;61648;52.094;5.054;2022-10-16T05:18:20;2.15;;;0.77;;
73434;SDS011;61648;52.094;5.054;2022-10-16T05:20:46;3.13;;;1.02;;
73434;SDS011;61648;52.094;5.054;2022-10-16T05:23:12;2.20;;;1.10;;
73434;SDS011;61648;52.094;5.054;2022-10-16T05:25:38;4.05;;;1.17;;
73434;SDS011;61648;52.094;5.054;2022-10-16T05:28:04;2.90;;;0.98;;
73434;SDS011;61648;52.094;5.054;2022-10-16T05:30:30;1.98;;;0.90;;
73434;SDS011;61648;52.094;5.054;2022-10-16T05:32:56;2.45;;;0.98;;
73434;SDS011;61648;52.094;5.054;2022-10-16T05:35:22;3.75;;;1.50;;
73434;SDS011;61648;52.094;5.054;2022-10-16T05:37:48;2.88;;;0.95;;
73434;SDS011;61648;52.094;5.054;2022-10-16T05:40:14;2.25;;;1.05;;
73434;SDS011;61648;52.094;5.054;2022-10-16T05:42:41;1.88;;;0.90;;
73434;SDS011;61648;52.094;5.054;2022-10-16T05:45:08;2.10;;;0.90;;
73434;SDS011;61648;52.094;5.054;2022-10-16T05:47:34;2.20;;;0.90;;
73434;SDS011;61648;52.094;5.054;2022-10-16T05:50:00;2.22;;;0.93;;
73434;SDS011;61648;52.094;5.054;2022-10-16T05:52:27;1.55;;;0.90;;
73434;SDS011;61648;52.094;5.054;2022-10-16T05:54:53;2.50;;;1.00;;
73434;SDS011;61648;52.094;5.054;2022-10-16T05:57:18;1.67;;;0.80;;
73434;SDS011;61648;52.094;5.054;2022-10-16T05:59:44;3.53;;;1.08;;
73434;SDS011;61648;52.094;5.054;2022-10-16T06:02:13;3.40;;;1.00;;
73434;SDS011;61648;52.094;5.054;2022-10-16T06:04:40;3.15;;;0.95;;
73434;SDS011;61648;52.094;5.054;2022-10-16T06:07:06;3.83;;;1.20;;
73434;SDS011;61648;52.094;5.054;2022-10-16T06:09:32;2.75;;;0.85;;
73434;SDS011;61648;52.094;5.054;2022-10-16T06:11:58;2.58;;;1.02;;
73434;SDS011;61648;52.094;5.054;2022-10-16T06:14:23;1.77;;;0.93;;
73434;SDS011;61648;52.094;5.054;2022-10-16T06:16:49;2.13;;;0.85;;
73434;SDS011;61648;52.094;5.054;2022-10-16T06:19:15;1.52;;;0.70;;
73434;SDS011;61648;52.094;5.054;2022-10-16T06:21:42;2.55;;;0.85;;
73434;SDS011;61648;52.094;5.054;2022-10-16T06:24:09;2.30;;;0.80;;
73434;SDS011;61648;52.094;5.054;2022-10-16T06:26:35;2.03;;;0.63;;
73434;SDS011;61648;52.094;5.054;2022-10-16T06:29:00;2.08;;;1.13;;
73434;SDS011;61648;52.094;5.054;2022-10-16T06:31:27;2.40;;;1.02;;
73434;SDS011;61648;52.094;5.054;2022-10-16T06:33:55;2.03;;;0.90;;
73434;SDS011;61648;52.094;5.054;2022-10-16T06:36:21;2.45;;;0.80;;
73434;SDS011;61648;52.094;5.054;2022-10-16T06:38:47;4.32;;;1.00;;
73434;SDS011;61648;52.094;5.054;2022-10-16T06:41:14;3.95;;;1.20;;
73434;SDS011;61648;52.094;5.054;2022-10-16T06:43:41;1.58;;;0.73;;
73434;SDS011;61648;52.094;5.054;2022-10-16T06:46:07;2.17;;;0.90;;
73434;SDS011;61648;52.094;5.054;2022-10-16T06:48:35;4.03;;;1.23;;
73434;SDS011;61648;52.094;5.054;2022-10-16T06:51:05;5.20;;;1.02;;
73434;SDS011;61648;52.094;5.054;2022-10-16T06:53:32;3.58;;;0.95;;
73434;SDS011;61648;52.094;5.054;2022-10-16T06:56:06;4.22;;;1.00;;
73434;SDS011;61648;52.094;5.054;2022-10-16T06:58:32;2.00;;;0.95;;
73434;SDS011;61648;52.094;5.054;2022-10-16T07:00:58;4.53;;;1.00;;
73434;SDS011;61648;52.094;5.054;2022-10-16T07:03:23;2.97;;;0.73;;
73434;SDS011;61648;52.094;5.054;2022-10-16T07:05:49;2.80;;;0.75;;
73434;SDS011;61648;52.094;5.054;2022-10-16T07:08:15;3.72;;;1.00;;
73434;SDS011;61648;52.094;5.054;2022-10-16T07:10:41;4.40;;;1.25;;
73434;SDS011;61648;52.094;5.054;2022-10-16T07:13:07;2.45;;;0.80;;
73434;SDS011;61648;52.094;5.054;2022-10-16T07:15:33;3.53;;;0.90;;
73434;SDS011;61648;52.094;5.054;2022-10-16T07:17:59;3.60;;;1.25;;
73434;SDS011;61648;52.094;5.054;2022-10-16T07:20:25;2.53;;;0.90;;
73434;SDS011;61648;52.094;5.054;2022-10-16T07:22:51;3.13;;;0.93;;
73434;SDS011;61648;52.094;5.054;2022-10-16T07:25:18;2.03;;;0.90;;
73434;SDS011;61648;52.094;5.054;2022-10-16T07:27:43;1.75;;;0.85;;
73434;SDS011;61648;52.094;5.054;2022-10-16T07:30:09;4.22;;;0.80;;
73434;SDS011;61648;52.094;5.054;2022-10-16T07:32:36;4.15;;;1.02;;
73434;SDS011;61648;52.094;5.054;2022-10-16T07:35:01;2.75;;;1.27;;
73434;SDS011;61648;52.094;5.054;2022-10-16T07:37:27;4.00;;;0.85;;
73434;SDS011;61648;52.094;5.054;2022-10-16T07:39:53;3.65;;;1.08;;
73434;SDS011;61648;52.094;5.054;2022-10-16T07:42:19;1.77;;;0.82;;
73434;SDS011;61648;52.094;5.054;2022-10-16T07:44:45;7.07;;;1.05;;
73434;SDS011;61648;52.094;5.054;2022-10-16T07:47:11;4.22;;;1.05;;
73434;SDS011;61648;52.094;5.054;2022-10-16T07:49:37;3.60;;;1.00;;
73434;SDS011;61648;52.094;5.054;2022-10-16T07:52:03;4.60;;;1.02;;
73434;SDS011;61648;52.094;5.054;2022-10-16T07:54:29;6.32;;;1.48;;
73434;SDS011;61648;52.094;5.054;2022-10-16T07:56:55;5.70;;;1.10;;
73434;SDS011;61648;52.094;5.054;2022-10-16T07:59:21;4.63;;;1.20;;
73434;SDS011;61648;52.094;5.054;2022-10-16T08:01:48;4.68;;;1.05;;
73434;SDS011;61648;52.094;5.054;2022-10-16T08:04:14;6.97;;;1.08;;
73434;SDS011;61648;52.094;5.054;2022-10-16T08:06:40;2.53;;;0.80;;
73434;SDS011;61648;52.094;5.054;2022-10-16T08:09:07;1.65;;;0.77;;
73434;SDS011;61648;52.094;5.054;2022-10-16T08:11:33;3.40;;;0.98;;
73434;SDS011;61648;52.094;5.054;2022-10-16T08:13:59;2.67;;;0.85;;
73434;SDS011;61648;52.094;5.054;2022-10-16T08:16:25;9.30;;;2.28;;
73434;SDS011;61648;52.094;5.054;2022-10-16T08:18:51;15.85;;;5.25;;
73434;SDS011;61648;52.094;5.054;2022-10-16T08:21:18;14.70;;;5.22;;
73434;SDS011;61648;52.094;5.054;2022-10-16T08:23:44;9.70;;;3.20;;
73434;SDS011;61648;52.094;5.054;2022-10-16T08:26:11;12.10;;;3.65;;
73434;SDS011;61648;52.094;5.054;2022-10-16T08:28:37;11.55;;;3.90;;
73434;SDS011;61648;52.094;5.054;2022-10-16T08:31:06;12.48;;;3.78;;
73434;SDS011;61648;52.094;5.054;2022-10-16T08:33:32;10.70;;;3.67;;
73434;SDS011;61648;52.094;5.054;2022-10-16T08:36:00;14.57;;;3.25;;
73434;SDS011;61648;52.094;5.054;2022-10-16T08:38:26;9.00;;;3.63;;
73434;SDS011;61648;52.094;5.054;2022-10-16T08:40:52;11.43;;;3.70;;
73434;SDS011;61648;52.094;5.054;2022-10-16T08:51:01;12.40;;;2.92;;
73434;SDS011;61648;52.094;5.054;2022-10-16T08:53:49;7.88;;;2.42;;
73434;SDS011;61648;52.094;5.054;2022-10-16T08:56:14;9.63;;;2.78;;
73434;SDS011;61648;52.094;5.054;2022-10-16T08:58:40;5.93;;;2.30;;
73434;SDS011;61648;52.094;5.054;2022-10-16T09:01:11;6.47;;;2.40;;
73434;SDS011;61648;52.094;5.054;2022-10-16T09:11:17;8.48;;;2.33;;
73434;SDS011;61648;52.094;5.054;2022-10-16T09:13:50;6.22;;;2.42;;
73434;SDS011;61648;52.094;5.054;2022-10-16T09:18:46;8.90;;;2.33;;
73434;SDS011;61648;52.094;5.054;2022-10-16T09:21:15;8.23;;;1.95;;
73434;SDS011;61648;52.094;5.054;2022-10-16T09:23:43;8.30;;;2.13;;
73434;SDS011;61648;52.094;5.054;2022-10-16T09:26:10;6.57;;;2.25;;
73434;SDS011;61648;52.094;5.054;2022-10-16T09:28:37;8.27;;;2.17;;
73434;SDS011;61648;52.094;5.054;2022-10-16T09:31:03;7.65;;;2.30;;
73434;SDS011;61648;52.094;5.054;2022-10-16T09:33:29;8.27;;;2.90;;
73434;SDS011;61648;52.094;5.054;2022-10-16T09:35:56;7.03;;;2.08;;
73434;SDS011;61648;52.094;5.054;2022-10-16T09:43:27;4.95;;;1.75;;
73434;SDS011;61648;52.094;5.054;2022-10-16T09:46:03;6.32;;;1.80;;
73434;SDS011;61648;52.094;5.054;2022-10-16T09:48:31;4.55;;;1.65;;
73434;SDS011;61648;52.094;5.054;2022-10-16T09:51:00;7.43;;;1.80;;
73434;SDS011;61648;52.094;5.054;2022-10-16T09:53:26;5.65;;;1.83;;
73434;SDS011;61648;52.094;5.054;2022-10-16T09:56:03;6.20;;;1.63;;
73434;SDS011;61648;52.094;5.054;2022-10-16T09:58:31;8.68;;;1.45;;
73434;SDS011;61648;52.094;5.054;2022-10-16T10:00:58;7.28;;;1.60;;
73434;SDS011;61648;52.094;5.054;2022-10-16T10:03:32;5.38;;;1.75;;
73434;SDS011;61648;52.094;5.054;2022-10-16T10:06:00;5.97;;;1.80;;
73434;SDS011;61648;52.094;5.054;2022-10-16T10:08:26;7.45;;;1.90;;
73434;SDS011;61648;52.094;5.054;2022-10-16T10:10:52;6.82;;;2.10;;
73434;SDS011;61648;52.094;5.054;2022-10-16T10:13:20;5.70;;;1.80;;
73434;SDS011;61648;52.094;5.054;2022-10-16T10:15:46;4.57;;;1.90;;
73434;SDS011;61648;52.094;5.054;2022-10-16T10:18:16;4.15;;;1.33;;
73434;SDS011;61648;52.094;5.054;2022-10-16T10:20:43;6.72;;;1.58;;
73434;SDS011;61648;52.094;5.054;2022-10-16T10:23:20;9.35;;;2.38;;
73434;SDS011;61648;52.094;5.054;2022-10-16T10:25:51;5.55;;;1.60;;
73434;SDS011;61648;52.094;5.054;2022-10-16T10:28:26;6.55;;;1.63;;
73434;SDS011;61648;52.094;5.054;2022-10-16T10:31:03;9.43;;;1.70;;
73434;SDS011;61648;52.094;5.054;2022-10-16T10:46:12;6.93;;;1.58;;
73434;SDS011;61648;52.094;5.054;2022-10-16T10:59:38;5.72;;;1.60;;
73434;SDS011;61648;52.094;5.054;2022-10-16T11:02:11;5.45;;;1.30;;
73434;SDS011;61648;52.094;5.054;2022-10-16T11:04:49;6.38;;;1.77;;
73434;SDS011;61648;52.094;5.054;2022-10-16T11:07:36;5.18;;;1.70;;
73434;SDS011;61648;52.094;5.054;2022-10-16T11:10:05;4.35;;;1.35;;
73434;SDS011;61648;52.094;5.054;2022-10-16T11:12:36;5.43;;;1.33;;
73434;SDS011;61648;52.094;5.054;2022-10-16T11:15:05;5.28;;;1.40;;
73434;SDS011;61648;52.094;5.054;2022-10-16T11:17:48;6.35;;;1.60;;
73434;SDS011;61648;52.094;5.054;2022-10-16T11:20:20;6.85;;;1.65;;
73434;SDS011;61648;52.094;5.054;2022-10-16T11:22:50;7.75;;;1.95;;
73434;SDS011;61648;52.094;5.054;2022-10-16T11:27:45;6.63;;;1.85;;
73434;SDS011;61648;52.094;5.054;2022-10-16T11:30:18;4.82;;;1.50;;
73434;SDS011;61648;52.094;5.054;2022-10-16T11:35:23;7.18;;;1.70;;
73434;SDS011;61648;52.094;5.054;2022-10-16T11:37:50;5.18;;;1.52;;
73434;SDS011;61648;52.094;5.054;2022-10-16T11:40:32;6.75;;;1.52;;
73434;SDS011;61648;52.094;5.054;2022-10-16T11:43:22;3.03;;;1.13;;
73434;SDS011;61648;52.094;5.054;2022-10-16T11:45:46;4.72;;;1.40;;
73434;SDS011;61648;52.094;5.054;2022-10-16T11:48:18;4.38;;;1.40;;
73434;SDS011;61648;52.094;5.054;2022-10-16T11:50:48;6.70;;;1.35;;
73434;SDS011;61648;52.094;5.054;2022-10-16T11:55:45;4.93;;;1.35;;
73434;SDS011;61648;52.094;5.054;2022-10-16T12:06:11;5.78;;;1.60;;
73434;SDS011;61648;52.094;5.054;2022-10-16T12:08:39;3.65;;;1.38;;
73434;SDS011;61648;52.094;5.054;2022-10-16T12:11:06;4.95;;;1.23;;
73434;SDS011;61648;52.094;5.054;2022-10-16T12:13:34;6.35;;;1.63;;
73434;SDS011;61648;52.094;5.054;2022-10-16T12:16:04;7.03;;;1.30;;
73434;SDS011;61648;52.094;5.054;2022-10-16T12:18:30;4.65;;;1.50;;
73434;SDS011;61648;52.094;5.054;2022-10-16T12:20:57;5.53;;;1.60;;
73434;SDS011;61648;52.094;5.054;2022-10-16T12:23:24;5.70;;;1.45;;
73434;SDS011;61648;52.094;5.054;2022-10-16T12:25:54;7.28;;;1.38;;
73434;SDS011;61648;52.094;5.054;2022-10-16T12:28:22;6.20;;;1.70;;
73434;SDS011;61648;52.094;5.054;2022-10-16T12:30:52;5.45;;;1.42;;
73434;SDS011;61648;52.094;5.054;2022-10-16T12:33:23;5.93;;;1.75;;
73434;SDS011;61648;52.094;5.054;2022-10-16T12:35:49;6.25;;;1.15;;
73434;SDS011;61648;52.094;5.054;2022-10-16T12:43:24;4.18;;;0.93;;
73434;SDS011;61648;52.094;5.054;2022-10-16T12:46:02;3.92;;;1.40;;
73434;SDS011;61648;52.094;5.054;2022-10-16T12:48:29;6.28;;;1.50;;
73434;SDS011;61648;52.094;5.054;2022-10-16T12:50:55;4.07;;;1.30;;
73434;SDS011;61648;52.094;5.054;2022-10-16T12:53:23;6.82;;;1.40;;
73434;SDS011;61648;52.094;5.054;2022-10-16T13:00:50;9.18;;;1.35;;
73434;SDS011;61648;52.094;5.054;2022-10-16T13:08:30;6.50;;;1.30;;
73434;SDS011;61648;52.094;5.054;2022-10-16T13:13:56;6.78;;;1.33;;
73434;SDS011;61648;52.094;5.054;2022-10-16T13:21:47;3.67;;;1.00;;
73434;SDS011;61648;52.094;5.054;2022-10-16T13:27:03;6.22;;;1.33;;
73434;SDS011;61648;52.094;5.054;2022-10-16T13:29:33;5.70;;;1.17;;
73434;SDS011;61648;52.094;5.054;2022-10-16T13:32:00;2.67;;;1.10;;
73434;SDS011;61648;52.094;5.054;2022-10-16T13:34:26;6.55;;;1.13;;
73434;SDS011;61648;52.094;5.054;2022-10-16T13:36:53;4.50;;;0.90;;
73434;SDS011;61648;52.094;5.054;2022-10-16T13:39:29;4.57;;;1.10;;
73434;SDS011;61648;52.094;5.054;2022-10-16T13:42:05;8.30;;;1.35;;
73434;SDS011;61648;52.094;5.054;2022-10-16T13:44:35;6.32;;;1.40;;
73434;SDS011;61648;52.094;5.054;2022-10-16T13:47:02;9.48;;;1.70;;
73434;SDS011;61648;52.094;5.054;2022-10-16T13:49:28;6.38;;;1.65;;
73434;SDS011;61648;52.094;5.054;2022-10-16T13:51:58;5.65;;;1.35;;
73434;SDS011;61648;52.094;5.054;2022-10-16T13:54:25;6.53;;;1.60;;
73434;SDS011;61648;52.094;5.054;2022-10-16T13:56:51;6.22;;;1.58;;
73434;SDS011;61648;52.094;5.054;2022-10-16T13:59:32;5.28;;;1.40;;
73434;SDS011;61648;52.094;5.054;2022-10-16T14:01:58;3.05;;;1.17;;
73434;SDS011;61648;52.094;5.054;2022-10-16T14:04:25;5.97;;;1.17;;
73434;SDS011;61648;52.094;5.054;2022-10-16T14:06:53;5.70;;;1.23;;
73434;SDS011;61648;52.094;5.054;2022-10-16T14:09:29;7.60;;;1.17;;
73434;SDS011;61648;52.094;5.054;2022-10-16T14:11:57;5.60;;;1.15;;
73434;SDS011;61648;52.094;5.054;2022-10-16T14:14:24;8.27;;;1.52;;
73434;SDS011;61648;52.094;5.054;2022-10-16T14:16:50;7.47;;;1.27;;
73434;SDS011;61648;52.094;5.054;2022-10-16T14:19:23;5.35;;;1.25;;
73434;SDS011;61648;52.094;5.054;2022-10-16T14:21:50;3.53;;;1.13;;
73434;SDS011;61648;52.094;5.054;2022-10-16T14:24:24;5.60;;;1.20;;
73434;SDS011;61648;52.094;5.054;2022-10-16T14:26:50;4.75;;;1.20;;
73434;SDS011;61648;52.094;5.054;2022-10-16T14:29:20;5.63;;;1.80;;
73434;SDS011;61648;52.094;5.054;2022-10-16T14:31:56;5.82;;;1.33;;
73434;SDS011;61648;52.094;5.054;2022-10-16T14:34:26;8.43;;;1.45;;
73434;SDS011;61648;52.094;5.054;2022-10-16T14:36:53;3.65;;;1.42;;
73434;SDS011;61648;52.094;5.054;2022-10-16T14:39:20;6.40;;;1.10;;
73434;SDS011;61648;52.094;5.054;2022-10-16T14:41:48;3.72;;;1.00;;
73434;SDS011;61648;52.094;5.054;2022-10-16T14:44:14;5.20;;;1.48;;
73434;SDS011;61648;52.094;5.054;2022-10-16T14:46:41;6.05;;;1.42;;
73434;SDS011;61648;52.094;5.054;2022-10-16T14:51:34;3.67;;;1.25;;
73434;SDS011;61648;52.094;5.054;2022-10-16T14:54:00;9.75;;;1.58;;
73434;SDS011;61648;52.094;5.054;2022-10-16T14:56:41;5.20;;;1.20;;
73434;SDS011;61648;52.094;5.054;2022-10-16T14:59:09;7.88;;;1.25;;
73434;SDS011;61648;52.094;5.054;2022-10-16T15:01:39;8.80;;;1.48;;
73434;SDS011;61648;52.094;5.054;2022-10-16T15:04:07;5.20;;;1.25;;
73434;SDS011;61648;52.094;5.054;2022-10-16T15:06:33;5.72;;;1.77;;
73434;SDS011;61648;52.094;5.054;2022-10-16T15:08:58;6.90;;;1.75;;
73434;SDS011;61648;52.094;5.054;2022-10-16T15:11:24;10.40;;;2.40;;
73434;SDS011;61648;52.094;5.054;2022-10-16T15:13:50;8.00;;;1.40;;
73434;SDS011;61648;52.094;5.054;2022-10-16T15:16:16;6.78;;;1.40;;
73434;SDS011;61648;52.094;5.054;2022-10-16T15:18:42;4.97;;;0.93;;
73434;SDS011;61648;52.094;5.054;2022-10-16T15:21:12;4.68;;;1.17;;
73434;SDS011;61648;52.094;5.054;2022-10-16T15:23:42;7.38;;;1.50;;
73434;SDS011;61648;52.094;5.054;2022-10-16T15:26:08;5.95;;;1.55;;
73434;SDS011;61648;52.094;5.054;2022-10-16T15:28:33;5.00;;;1.00;;
73434;SDS011;61648;52.094;5.054;2022-10-16T15:31:00;4.47;;;1.35;;
73434;SDS011;61648;52.094;5.054;2022-10-16T15:33:27;8.18;;;1.70;;
73434;SDS011;61648;52.094;5.054;2022-10-16T15:35:57;5.22;;;1.08;;
73434;SDS011;61648;52.094;5.054;2022-10-16T15:38:23;6.00;;;1.25;;
73434;SDS011;61648;52.094;5.054;2022-10-16T15:40:50;6.00;;;1.40;;
73434;SDS011;61648;52.094;5.054;2022-10-16T15:43:16;6.68;;;1.20;;
73434;SDS011;61648;52.094;5.054;2022-10-16T15:45:42;10.35;;;1.55;;
73434;SDS011;61648;52.094;5.054;2022-10-16T15:48:12;5.82;;;1.50;;
73434;SDS011;61648;52.094;5.054;2022-10-16T15:50:38;7.43;;;1.33;;
73434;SDS011;61648;52.094;5.054;2022-10-16T15:53:05;7.43;;;1.30;;
73434;SDS011;61648;52.094;5.054;2022-10-16T15:55:31;4.60;;;1.23;;
73434;SDS011;61648;52.094;5.054;2022-10-16T15:57:57;6.05;;;1.17;;
73434;SDS011;61648;52.094;5.054;2022-10-16T16:00:23;7.65;;;1.67;;
73434;SDS011;61648;52.094;5.054;2022-10-16T16:02:53;5.85;;;1.25;;
73434;SDS011;61648;52.094;5.054;2022-10-16T16:07:45;9.40;;;1.52;;
73434;SDS011;61648;52.094;5.054;2022-10-16T16:10:11;6.07;;;1.27;;
73434;SDS011;61648;52.094;5.054;2022-10-16T16:12:37;9.77;;;2.10;;
73434;SDS011;61648;52.094;5.054;2022-10-16T16:15:04;8.63;;;1.85;;
73434;SDS011;61648;52.094;5.054;2022-10-16T16:17:31;16.63;;;1.92;;
73434;SDS011;61648;52.094;5.054;2022-10-16T16:19:57;8.93;;;1.60;;
73434;SDS011;61648;52.094;5.054;2022-10-16T16:22:24;10.93;;;2.00;;
73434;SDS011;61648;52.094;5.054;2022-10-16T16:24:50;6.10;;;1.23;;
73434;SDS011;61648;52.094;5.054;2022-10-16T16:27:16;7.85;;;1.73;;
73434;SDS011;61648;52.094;5.054;2022-10-16T16:29:42;11.90;;;1.80;;
73434;SDS011;61648;52.094;5.054;2022-10-16T16:32:08;4.68;;;1.20;;
73434;SDS011;61648;52.094;5.054;2022-10-16T16:34:34;7.38;;;1.50;;
73434;SDS011;61648;52.094;5.054;2022-10-16T16:37:01;5.95;;;1.67;;
73434;SDS011;61648;52.094;5.054;2022-10-16T16:39:27;8.43;;;1.40;;
73434;SDS011;61648;52.094;5.054;2022-10-16T16:41:54;7.75;;;1.77;;
73434;SDS011;61648;52.094;5.054;2022-10-16T16:44:20;13.52;;;2.30;;
73434;SDS011;61648;52.094;5.054;2022-10-16T16:46:46;7.82;;;1.88;;
73434;SDS011;61648;52.094;5.054;2022-10-16T16:49:12;10.05;;;2.25;;
73434;SDS011;61648;52.094;5.054;2022-10-16T16:51:40;7.20;;;1.70;;
73434;SDS011;61648;52.094;5.054;2022-10-16T16:54:06;8.50;;;1.85;;
73434;SDS011;61648;52.094;5.054;2022-10-16T16:56:33;4.80;;;1.75;;
73434;SDS011;61648;52.094;5.054;2022-10-16T16:58:59;9.52;;;1.95;;
73434;SDS011;61648;52.094;5.054;2022-10-16T17:01:26;9.60;;;1.80;;
73434;SDS011;61648;52.094;5.054;2022-10-16T17:03:53;8.05;;;1.98;;
73434;SDS011;61648;52.094;5.054;2022-10-16T17:06:20;8.82;;;1.70;;
73434;SDS011;61648;52.094;5.054;2022-10-16T17:08:47;9.50;;;1.70;;
73434;SDS011;61648;52.094;5.054;2022-10-16T17:11:14;7.55;;;1.80;;
73434;SDS011;61648;52.094;5.054;2022-10-16T17:13:40;9.68;;;1.77;;
73434;SDS011;61648;52.094;5.054;2022-10-16T17:16:07;8.95;;;2.28;;
73434;SDS011;61648;52.094;5.054;2022-10-16T17:18:33;7.55;;;1.80;;
73434;SDS011;61648;52.094;5.054;2022-10-16T17:21:00;6.30;;;2.00;;
73434;SDS011;61648;52.094;5.054;2022-10-16T17:23:26;30.58;;;2.53;;
73434;SDS011;61648;52.094;5.054;2022-10-16T17:25:52;8.70;;;2.67;;
73434;SDS011;61648;52.094;5.054;2022-10-16T17:28:18;10.55;;;2.38;;
73434;SDS011;61648;52.094;5.054;2022-10-16T17:30:45;8.27;;;2.55;;
73434;SDS011;61648;52.094;5.054;2022-10-16T17:33:11;10.70;;;2.33;;
73434;SDS011;61648;52.094;5.054;2022-10-16T17:35:38;12.23;;;2.45;;
73434;SDS011;61648;52.094;5.054;2022-10-16T17:38:04;10.38;;;2.80;;
73434;SDS011;61648;52.094;5.054;2022-10-16T17:40:30;12.23;;;2.22;;
73434;SDS011;61648;52.094;5.054;2022-10-16T17:42:56;9.38;;;2.10;;
73434;SDS011;61648;52.094;5.054;2022-10-16T17:45:22;12.07;;;2.90;;
73434;SDS011;61648;52.094;5.054;2022-10-16T17:47:48;8.48;;;2.13;;
73434;SDS011;61648;52.094;5.054;2022-10-16T17:50:14;10.15;;;2.50;;
73434;SDS011;61648;52.094;5.054;2022-10-16T17:52:40;10.88;;;2.35;;
73434;SDS011;61648;52.094;5.054;2022-10-16T17:55:06;8.35;;;2.20;;
73434;SDS011;61648;52.094;5.054;2022-10-16T17:57:32;9.10;;;2.25;;
73434;SDS011;61648;52.094;5.054;2022-10-16T17:59:58;10.70;;;2.65;;
73434;SDS011;61648;52.094;5.054;2022-10-16T18:02:26;11.02;;;2.28;;
73434;SDS011;61648;52.094;5.054;2022-10-16T18:04:52;10.00;;;2.67;;
73434;SDS011;61648;52.094;5.054;2022-10-16T18:07:19;9.23;;;2.30;;
73434;SDS011;61648;52.094;5.054;2022-10-16T18:09:45;8.15;;;2.63;;
73434;SDS011;61648;52.094;5.054;2022-10-16T18:12:11;8.20;;;2.33;;
73434;SDS011;61648;52.094;5.054;2022-10-16T18:14:37;9.18;;;2.30;;
73434;SDS011;61648;52.094;5.054;2022-10-16T18:17:03;9.10;;;2.10;;
73434;SDS011;61648;52.094;5.054;2022-10-16T18:19:29;9.90;;;2.65;;
73434;SDS011;61648;52.094;5.054;2022-10-16T18:21:55;7.75;;;2.25;;
73434;SDS011;61648;52.094;5.054;2022-10-16T18:24:22;7.47;;;2.17;;
73434;SDS011;61648;52.094;5.054;2022-10-16T18:26:51;9.80;;;2.38;;
73434;SDS011;61648;52.094;5.054;2022-10-16T18:29:20;11.88;;;2.53;;
73434;SDS011;61648;52.094;5.054;2022-10-16T18:31:47;7.05;;;2.22;;
73434;SDS011;61648;52.094;5.054;2022-10-16T18:34:13;9.35;;;2.33;;
73434;SDS011;61648;52.094;5.054;2022-10-16T18:36:39;9.43;;;2.50;;
73434;SDS011;61648;52.094;5.054;2022-10-16T18:39:07;11.07;;;2.80;;
73434;SDS011;61648;52.094;5.054;2022-10-16T18:41:34;9.10;;;2.47;;
73434;SDS011;61648;52.094;5.054;2022-10-16T18:44:02;11.68;;;2.78;;
73434;SDS011;61648;52.094;5.054;2022-10-16T18:46:28;9.43;;;2.60;;
73434;SDS011;61648;52.094;5.054;2022-10-16T18:48:54;8.65;;;2.17;;
73434;SDS011;61648;52.094;5.054;2022-10-16T18:51:28;9.93;;;2.70;;
73434;SDS011;61648;52.094;5.054;2022-10-16T18:53:56;9.68;;;2.63;;
73434;SDS011;61648;52.094;5.054;2022-10-16T18:56:22;11.05;;;2.60;;
73434;SDS011;61648;52.094;5.054;2022-10-16T18:58:49;12.00;;;2.40;;
73434;SDS011;61648;52.094;5.054;2022-10-16T19:01:16;8.50;;;2.33;;
73434;SDS011;61648;52.094;5.054;2022-10-16T19:03:44;12.25;;;3.17;;
73434;SDS011;61648;52.094;5.054;2022-10-16T19:06:12;8.68;;;2.45;;
73434;SDS011;61648;52.094;5.054;2022-10-16T19:08:38;8.20;;;2.42;;
73434;SDS011;61648;52.094;5.054;2022-10-16T19:11:08;10.00;;;2.58;;
73434;SDS011;61648;52.094;5.054;2022-10-16T19:13:35;13.65;;;2.65;;
73434;SDS011;61648;52.094;5.054;2022-10-16T19:16:01;8.43;;;2.35;;
73434;SDS011;61648;52.094;5.054;2022-10-16T19:18:27;11.15;;;2.47;;
73434;SDS011;61648;52.094;5.054;2022-10-16T19:21:01;8.63;;;2.58;;
73434;SDS011;61648;52.094;5.054;2022-10-16T19:23:27;9.25;;;2.47;;
73434;SDS011;61648;52.094;5.054;2022-10-16T19:25:53;31.50;;;4.97;;
73434;SDS011;61648;52.094;5.054;2022-10-16T19:28:19;13.52;;;2.95;;
73434;SDS011;61648;52.094;5.054;2022-10-16T19:30:45;12.90;;;2.83;;
73434;SDS011;61648;52.094;5.054;2022-10-16T19:33:12;10.95;;;2.58;;
73434;SDS011;61648;52.094;5.054;2022-10-16T19:35:38;11.20;;;2.80;;
73434;SDS011;61648;52.094;5.054;2022-10-16T19:38:04;11.65;;;2.60;;
73434;SDS011;61648;52.094;5.054;2022-10-16T19:40:30;12.82;;;3.10;;
73434;SDS011;61648;52.094;5.054;2022-10-16T19:42:56;11.30;;;2.63;;
73434;SDS011;61648;52.094;5.054;2022-10-16T19:45:22;9.55;;;2.78;;
73434;SDS011;61648;52.094;5.054;2022-10-16T19:47:48;13.40;;;2.72;;
73434;SDS011;61648;52.094;5.054;2022-10-16T19:50:14;10.23;;;2.60;;
73434;SDS011;61648;52.094;5.054;2022-10-16T19:52:40;9.18;;;2.42;;
73434;SDS011;61648;52.094;5.054;2022-10-16T19:55:07;9.25;;;2.70;;
73434;SDS011;61648;52.094;5.054;2022-10-16T19:57:34;10.20;;;2.47;;
73434;SDS011;61648;52.094;5.054;2022-10-16T20:00:00;9.70;;;2.30;;
73434;SDS011;61648;52.094;5.054;2022-10-16T20:02:27;9.63;;;2.60;;
73434;SDS011;61648;52.094;5.054;2022-10-16T20:04:53;8.35;;;2.55;;
73434;SDS011;61648;52.094;5.054;2022-10-16T20:07:19;11.65;;;3.10;;
73434;SDS011;61648;52.094;5.054;2022-10-16T20:09:46;8.13;;;2.20;;
73434;SDS011;61648;52.094;5.054;2022-10-16T20:12:12;8.20;;;2.42;;
73434;SDS011;61648;52.094;5.054;2022-10-16T20:14:38;6.78;;;2.30;;
73434;SDS011;61648;52.094;5.054;2022-10-16T20:17:04;9.00;;;2.50;;
73434;SDS011;61648;52.094;5.054;2022-10-16T20:19:30;8.32;;;2.55;;
73434;SDS011;61648;52.094;5.054;2022-10-16T20:21:58;8.68;;;2.47;;
73434;SDS011;61648;52.094;5.054;2022-10-16T20:24:24;10.30;;;2.63;;
73434;SDS011;61648;52.094;5.054;2022-10-16T20:26:49;8.85;;;2.53;;
73434;SDS011;61648;52.094;5.054;2022-10-16T20:29:16;9.57;;;2.90;;
73434;SDS011;61648;52.094;5.054;2022-10-16T20:31:42;15.18;;;2.72;;
73434;SDS011;61648;52.094;5.054;2022-10-16T20:34:08;12.98;;;2.80;;
73434;SDS011;61648;52.094;5.054;2022-10-16T20:36:35;8.02;;;2.65;;
73434;SDS011;61648;52.094;5.054;2022-10-16T20:39:02;11.32;;;2.85;;
73434;SDS011;61648;52.094;5.054;2022-10-16T20:41:28;10.23;;;3.00;;
73434;SDS011;61648;52.094;5.054;2022-10-16T20:43:54;7.38;;;2.03;;
73434;SDS011;61648;52.094;5.054;2022-10-16T20:46:21;9.20;;;2.50;;
73434;SDS011;61648;52.094;5.054;2022-10-16T20:48:47;7.88;;;2.45;;
73434;SDS011;61648;52.094;5.054;2022-10-16T20:53:43;6.93;;;2.13;;
73434;SDS011;61648;52.094;5.054;2022-10-16T20:56:10;7.03;;;2.38;;
73434;SDS011;61648;52.094;5.054;2022-10-16T20:58:37;9.23;;;2.75;;
73434;SDS011;61648;52.094;5.054;2022-10-16T21:01:04;11.07;;;2.70;;
73434;SDS011;61648;52.094;5.054;2022-10-16T21:03:30;10.00;;;2.70;;
73434;SDS011;61648;52.094;5.054;2022-10-16T21:05:56;5.80;;;1.95;;